createdAt,value
2023-11-09T00:00:31.032Z,99735.56
2023-11-09T00:01:02.929Z,99736.22
2023-11-09T00:01:34.927Z,99743.88
2023-11-09T00:02:07.113Z,99731.38
2023-11-09T00:02:39.080Z,99732.06
2023-11-09T00:03:11.439Z,99734.38
2023-11-09T00:03:43.579Z,99732.09
2023-11-09T00:04:15.511Z,99734.50
2023-11-09T00:04:47.484Z,99736.13
2023-11-09T00:05:19.554Z,99731.53
2023-11-09T00:05:51.603Z,99728.56
2023-11-09T00:06:24.341Z,99732.81
2023-11-09T00:06:56.272Z,99737.94
2023-11-09T00:07:31.042Z,99739.66
2023-11-09T00:08:03.211Z,99742.25
2023-11-09T00:08:35.212Z,99737.78
2023-11-09T00:09:07.526Z,99729.66
2023-11-09T00:09:39.493Z,99730.19
2023-11-09T00:10:13.982Z,99726.34
2023-11-09T00:10:45.940Z,99729.56
2023-11-09T00:11:17.797Z,99742.69
2023-11-09T00:11:49.653Z,99732.63
2023-11-09T00:12:21.511Z,99728.56
2023-11-09T00:12:54.652Z,99731.56
2023-11-09T00:13:27.791Z,99737.59
2023-11-09T00:13:59.714Z,99737.59
2023-11-09T00:14:31.550Z,99732.59
2023-11-09T00:15:04.645Z,99728.03
2023-11-09T00:15:39.188Z,99724.97
2023-11-09T00:16:13.816Z,99731.91
2023-11-09T00:16:47.748Z,99725.94
2023-11-09T00:17:21.352Z,99733.75
2023-11-09T00:17:54.418Z,99727.50
2023-11-09T00:18:26.600Z,99730.72
2023-11-09T00:18:58.736Z,99732.41
2023-11-09T00:19:30.746Z,99733.72
2023-11-09T00:20:02.843Z,99735.34
2023-11-09T00:20:35.952Z,99737.00
2023-11-09T00:21:07.822Z,99730.94
2023-11-09T00:21:39.873Z,99738.06
2023-11-09T00:22:11.928Z,99741.50
2023-11-09T00:22:44.599Z,99734.47
2023-11-09T00:23:16.809Z,99737.06
2023-11-09T00:23:48.766Z,99735.22
2023-11-09T00:24:20.902Z,99732.69
2023-11-09T00:24:52.842Z,99730.09
2023-11-09T00:25:24.750Z,99724.94
2023-11-09T00:25:56.648Z,99725.81
2023-11-09T00:26:28.547Z,99739.00
2023-11-09T00:27:00.436Z,99723.28
2023-11-09T00:27:32.340Z,99727.53
2023-11-09T00:28:04.523Z,99729.16
2023-11-09T00:28:36.429Z,99726.44
2023-11-09T00:29:08.335Z,99723.88
2023-11-09T00:29:41.052Z,99726.34
2023-11-09T00:30:13.331Z,99726.41
2023-11-09T00:30:45.665Z,99725.47
2023-11-09T00:31:21.188Z,99719.44
2023-11-09T00:31:53.171Z,99722.84
2023-11-09T00:32:25.841Z,99716.88
2023-11-09T00:32:57.799Z,99726.41
2023-11-09T00:33:29.692Z,99719.44
2023-11-09T00:34:01.683Z,99724.03
2023-11-09T00:34:33.716Z,99717.16
2023-11-09T00:35:06.753Z,99727.53
2023-11-09T00:35:39.813Z,99725.56
2023-11-09T00:36:11.864Z,99728.19
2023-11-09T00:36:43.895Z,99722.03
2023-11-09T00:37:16.396Z,99718.53
2023-11-09T00:37:48.381Z,99716.78
2023-11-09T00:38:20.996Z,99717.78
2023-11-09T00:38:53.183Z,99723.06
2023-11-09T00:39:26.503Z,99725.03
2023-11-09T00:40:00.537Z,99725.03
2023-11-09T00:40:32.645Z,99724.13
2023-11-09T00:41:04.691Z,99727.56
2023-11-09T00:41:36.666Z,99721.31
2023-11-09T00:42:08.564Z,99715.13
2023-11-09T00:42:40.700Z,99712.53
2023-11-09T00:43:13.379Z,99724.88
2023-11-09T00:43:45.535Z,99717.91
2023-11-09T00:44:17.470Z,99716.09
2023-11-09T00:44:49.765Z,99714.22
2023-11-09T00:45:21.745Z,99722.03
2023-11-09T00:45:54.422Z,99707.75
2023-11-09T00:46:27.243Z,99714.59
2023-11-09T00:47:01.002Z,99713.66
2023-11-09T00:47:32.937Z,99707.47
2023-11-09T00:48:05.731Z,99704.63
2023-11-09T00:48:37.815Z,99705.38
2023-11-09T00:49:09.735Z,99703.47
2023-11-09T00:49:41.625Z,99706.13
2023-11-09T00:50:14.344Z,99707.13
2023-11-09T00:50:46.392Z,99704.59
2023-11-09T00:51:19.629Z,99700.22
2023-11-09T00:51:51.774Z,99707.13
2023-11-09T00:52:23.736Z,99703.63
2023-11-09T00:52:55.651Z,99703.56
2023-11-09T00:53:28.135Z,99701.84
2023-11-09T00:54:00.070Z,99698.56
2023-11-09T00:54:31.975Z,99701.28
2023-11-09T00:55:04.228Z,99705.94
2023-11-09T00:55:36.202Z,99697.28
2023-11-09T00:56:08.602Z,99701.47
2023-11-09T00:56:40.519Z,99699.53
2023-11-09T00:57:12.424Z,99697.66
2023-11-09T00:57:44.316Z,99698.44
2023-11-09T00:58:17.430Z,99700.97
2023-11-09T00:58:49.395Z,99696.75
2023-11-09T00:59:21.274Z,99703.25
2023-11-09T00:59:53.207Z,99707.69
2023-11-09T01:00:25.237Z,99690.13
2023-11-09T01:00:57.902Z,99699.81
2023-11-09T01:01:30.194Z,99696.38
2023-11-09T01:02:02.536Z,99704.28
2023-11-09T01:02:38.858Z,99703.44
2023-11-09T01:03:10.914Z,99693.81
2023-11-09T01:03:42.942Z,99699.97
2023-11-09T01:04:15.067Z,99692.94
2023-11-09T01:04:47.154Z,99706.94
2023-11-09T01:05:19.193Z,99687.47
2023-11-09T01:05:51.280Z,99686.56
2023-11-09T01:06:23.196Z,99683.97
2023-11-09T01:06:55.090Z,99680.56
2023-11-09T01:07:27.372Z,99683.22
2023-11-09T01:07:59.318Z,99686.75
2023-11-09T01:08:31.268Z,99682.34
2023-11-09T01:09:03.156Z,99677.06
2023-11-09T01:09:35.055Z,99691.13
2023-11-09T01:10:07.680Z,99688.34
2023-11-09T01:10:39.603Z,99681.22
2023-11-09T01:11:11.570Z,99678.53
2023-11-09T01:11:43.553Z,99687.38
2023-11-09T01:12:15.419Z,99681.34
2023-11-09T01:12:47.359Z,99678.69
2023-11-09T01:13:19.351Z,99677.91
2023-11-09T01:13:53.427Z,99685.75
2023-11-09T01:14:25.275Z,99685.63
2023-11-09T01:14:57.192Z,99686.38
2023-11-09T01:15:29.065Z,99682.84
2023-11-09T01:16:02.848Z,99693.66
2023-11-09T01:16:34.740Z,99683.06
2023-11-09T01:17:08.075Z,99682.13
2023-11-09T01:17:40.268Z,99684.69
2023-11-09T01:18:12.773Z,99681.84
2023-11-09T01:18:44.703Z,99674.97
2023-11-09T01:19:16.631Z,99679.28
2023-11-09T01:19:48.695Z,99674.81
2023-11-09T01:20:20.568Z,99676.50
2023-11-09T01:20:52.477Z,99681.81
2023-11-09T01:21:24.406Z,99675.66
2023-11-09T01:21:56.485Z,99674.75
2023-11-09T01:22:28.465Z,99675.63
2023-11-09T01:23:00.729Z,99677.31
2023-11-09T01:23:32.594Z,99679.97
2023-11-09T01:24:04.694Z,99678.13
2023-11-09T01:24:36.767Z,99682.47
2023-11-09T01:25:09.054Z,99672.03
2023-11-09T01:25:41.108Z,99673.78
2023-11-09T01:26:14.819Z,99681.69
2023-11-09T01:26:46.882Z,99680.75
2023-11-09T01:27:18.854Z,99683.41
2023-11-09T01:27:50.750Z,99678.19
2023-11-09T01:28:22.818Z,99673.84
2023-11-09T01:28:54.956Z,99675.53
2023-11-09T01:29:26.887Z,99677.28
2023-11-09T01:29:58.865Z,99676.41
2023-11-09T01:30:30.845Z,99676.50
2023-11-09T01:31:04.381Z,99677.31
2023-11-09T01:31:36.527Z,99659.09
2023-11-09T01:32:08.438Z,99671.25
2023-11-09T01:32:40.368Z,99670.38
2023-11-09T01:33:12.475Z,99661.88
2023-11-09T01:33:44.443Z,99664.41
2023-11-09T01:34:16.779Z,99668.72
2023-11-09T01:34:49.360Z,99668.63
2023-11-09T01:35:21.332Z,99666.84
2023-11-09T01:35:53.314Z,99658.19
2023-11-09T01:36:25.308Z,99675.47
2023-11-09T01:36:58.398Z,99672.03
2023-11-09T01:37:30.346Z,99659.72
2023-11-09T01:38:02.313Z,99665.00
2023-11-09T01:38:35.357Z,99666.03
2023-11-09T01:39:07.346Z,99669.63
2023-11-09T01:39:41.098Z,99664.41
2023-11-09T01:40:13.327Z,99652.41
2023-11-09T01:40:54.998Z,99655.97
2023-11-09T01:41:26.908Z,99669.41
2023-11-09T01:41:58.851Z,99666.00
2023-11-09T01:42:31.152Z,99668.56
2023-11-09T01:43:03.128Z,99666.66
2023-11-09T01:43:35.875Z,99663.16
2023-11-09T01:44:07.753Z,99675.25
2023-11-09T01:44:39.727Z,99662.91
2023-11-09T01:45:11.975Z,99669.19
2023-11-09T01:45:46.112Z,99670.25
2023-11-09T01:46:18.184Z,99670.41
2023-11-09T01:46:54.664Z,99672.13
2023-11-09T01:47:26.939Z,99666.94
2023-11-09T01:47:59.322Z,99673.06
2023-11-09T01:48:31.413Z,99667.88
2023-11-09T01:49:03.640Z,99664.47
2023-11-09T01:49:37.305Z,99670.56
2023-11-09T01:50:10.599Z,99669.69
2023-11-09T01:50:42.728Z,99667.94
2023-11-09T01:51:16.524Z,99674.06
2023-11-09T01:51:50.247Z,99677.75
2023-11-09T01:52:22.655Z,99671.69
2023-11-09T01:52:55.920Z,99670.78
2023-11-09T01:53:29.877Z,99667.25
2023-11-09T01:54:02.011Z,99668.94
2023-11-09T01:54:34.978Z,99667.03
2023-11-09T01:55:07.615Z,99661.66
2023-11-09T01:55:40.401Z,99668.72
2023-11-09T01:56:15.549Z,99667.03
2023-11-09T01:56:47.999Z,99668.78
2023-11-09T01:57:21.111Z,99671.34
2023-11-09T01:57:54.655Z,99669.56
2023-11-09T01:58:27.088Z,99669.56
2023-11-09T01:58:59.513Z,99661.63
2023-11-09T01:59:34.304Z,99661.50
2023-11-09T02:00:08.069Z,99663.34
2023-11-09T02:00:43.552Z,99660.63
2023-11-09T02:01:15.543Z,99662.38
2023-11-09T02:01:48.328Z,99665.81
2023-11-09T02:02:21.903Z,99664.84
2023-11-09T02:02:58.903Z,99662.34
2023-11-09T02:03:31.075Z,99661.28
2023-11-09T02:04:04.288Z,99660.34
2023-11-09T02:04:36.851Z,99661.47
2023-11-09T02:05:11.348Z,99658.94
2023-11-09T02:05:44.690Z,99659.72
2023-11-09T02:06:19.553Z,99661.56
2023-11-09T02:06:56.207Z,99655.63
2023-11-09T02:07:29.209Z,99656.38
2023-11-09T02:08:02.150Z,99659.97
2023-11-09T02:08:34.567Z,99657.13
2023-11-09T02:09:07.383Z,99658.09
2023-11-09T02:09:39.604Z,99658.09
2023-11-09T02:10:13.146Z,99651.69
2023-11-09T02:10:45.188Z,99659.34
2023-11-09T02:11:18.454Z,99656.72
2023-11-09T02:11:51.074Z,99659.44
2023-11-09T02:12:23.430Z,99655.09
2023-11-09T02:12:55.884Z,99649.81
2023-11-09T02:13:27.975Z,99650.63
2023-11-09T02:14:00.074Z,99654.78
2023-11-09T02:14:32.082Z,99646.72
2023-11-09T02:15:04.510Z,99651.88
2023-11-09T02:15:36.468Z,99652.91
2023-11-09T02:16:08.716Z,99649.66
2023-11-09T02:16:40.768Z,99654.94
2023-11-09T02:17:12.940Z,99644.50
2023-11-09T02:17:46.742Z,99648.00
2023-11-09T02:18:20.114Z,99644.50
2023-11-09T02:18:52.773Z,99647.06
2023-11-09T02:19:26.600Z,99647.03
2023-11-09T02:19:59.888Z,99652.19
2023-11-09T02:20:31.909Z,99650.38
2023-11-09T02:21:04.407Z,99648.47
2023-11-09T02:21:38.173Z,99646.72
2023-11-09T02:22:10.830Z,99653.66
2023-11-09T02:22:47.363Z,99649.94
2023-11-09T02:23:24.724Z,99646.50
2023-11-09T02:24:00.768Z,99645.63
2023-11-09T02:24:33.917Z,99651.66
2023-11-09T02:25:07.427Z,99649.84
2023-11-09T02:25:42.167Z,99641.09
2023-11-09T02:26:14.591Z,99648.91
2023-11-09T02:26:47.751Z,99650.69
2023-11-09T02:27:19.894Z,99643.78
2023-11-09T02:27:51.747Z,99645.41
2023-11-09T02:28:23.679Z,99648.88
2023-11-09T02:28:56.182Z,99650.59
2023-11-09T02:29:28.308Z,99642.59
2023-11-09T02:30:00.263Z,99648.72
2023-11-09T02:30:32.125Z,99645.25
2023-11-09T02:31:04.196Z,99646.97
2023-11-09T02:31:36.070Z,99641.53
2023-11-09T02:32:08.372Z,99646.81
2023-11-09T02:32:40.279Z,99644.97
2023-11-09T02:33:15.198Z,99649.22
2023-11-09T02:33:47.198Z,99649.22
2023-11-09T02:34:24.826Z,99656.25
2023-11-09T02:34:57.788Z,99647.41
2023-11-09T02:35:29.727Z,99645.59
2023-11-09T02:36:01.730Z,99647.41
2023-11-09T02:36:33.758Z,99644.63
2023-11-09T02:37:09.866Z,99648.97
2023-11-09T02:37:41.794Z,99654.34
2023-11-09T02:38:13.757Z,99656.97
2023-11-09T02:38:46.567Z,99648.25
2023-11-09T02:39:18.489Z,99642.00
2023-11-09T02:39:54.757Z,99656.81
2023-11-09T02:40:27.215Z,99649.84
2023-11-09T02:40:59.144Z,99649.97
2023-11-09T02:41:31.088Z,99653.53
2023-11-09T02:42:03.790Z,99646.59
2023-11-09T02:42:35.683Z,99647.59
2023-11-09T02:43:07.697Z,99649.25
2023-11-09T02:43:42.033Z,99640.72
2023-11-09T02:44:14.157Z,99644.28
2023-11-09T02:44:46.087Z,99649.63
2023-11-09T02:45:18.093Z,99652.25
2023-11-09T02:45:49.987Z,99638.94
2023-11-09T02:46:21.917Z,99647.03
2023-11-09T02:46:53.860Z,99649.78
2023-11-09T02:47:25.797Z,99650.69
2023-11-09T02:47:58.133Z,99650.91
2023-11-09T02:48:30.067Z,99643.19
2023-11-09T02:49:02.574Z,99640.72
2023-11-09T02:49:34.677Z,99639.81
2023-11-09T02:50:07.021Z,99640.75
2023-11-09T02:50:38.930Z,99638.22
2023-11-09T02:51:11.599Z,99640.00
2023-11-09T02:51:43.661Z,99644.59
2023-11-09T02:52:16.118Z,99637.63
2023-11-09T02:52:49.473Z,99641.97
2023-11-09T02:53:21.409Z,99643.50
2023-11-09T02:53:54.694Z,99640.13
2023-11-09T02:54:27.412Z,99645.00
2023-11-09T02:55:01.026Z,99640.50
2023-11-09T02:55:33.100Z,99635.16
2023-11-09T02:56:07.920Z,99636.41
2023-11-09T02:56:40.205Z,99637.38
2023-11-09T02:57:12.901Z,99638.97
2023-11-09T02:57:44.893Z,99632.09
2023-11-09T02:58:16.807Z,99641.00
2023-11-09T02:58:49.687Z,99631.22
2023-11-09T02:59:21.581Z,99632.84
2023-11-09T02:59:54.063Z,99633.72
2023-11-09T03:00:26.942Z,99643.25
2023-11-09T03:00:59.312Z,99630.41
2023-11-09T03:01:32.140Z,99637.25
2023-11-09T03:02:04.131Z,99637.06
2023-11-09T03:02:36.110Z,99636.97
2023-11-09T03:03:08.063Z,99634.34
2023-11-09T03:03:40.116Z,99643.19
2023-11-09T03:04:12.122Z,99637.44
2023-11-09T03:04:44.155Z,99644.53
2023-11-09T03:05:22.498Z,99642.91
2023-11-09T03:05:57.048Z,99643.84
2023-11-09T03:06:29.211Z,99635.88
2023-11-09T03:07:01.264Z,99643.78
2023-11-09T03:07:33.186Z,99642.81
2023-11-09T03:08:05.568Z,99648.94
2023-11-09T03:08:37.486Z,99645.44
2023-11-09T03:09:12.399Z,99644.53
2023-11-09T03:09:46.044Z,99646.16
2023-11-09T03:10:17.988Z,99646.16
2023-11-09T03:10:50.141Z,99641.69
2023-11-09T03:11:22.105Z,99646.97
2023-11-09T03:11:54.451Z,99638.97
2023-11-09T03:12:28.043Z,99640.75
2023-11-09T03:13:03.760Z,99641.31
2023-11-09T03:13:40.923Z,99641.31
2023-11-09T03:14:12.934Z,99650.91
2023-11-09T03:14:45.096Z,99642.88
2023-11-09T03:15:18.718Z,99648.91
2023-11-09T03:15:51.231Z,99646.28
2023-11-09T03:16:23.280Z,99641.66
2023-11-09T03:16:55.211Z,99646.97
2023-11-09T03:17:27.146Z,99641.53
2023-11-09T03:18:00.119Z,99642.22
2023-11-09T03:18:32.390Z,99640.44
2023-11-09T03:19:04.443Z,99642.16
2023-11-09T03:19:37.601Z,99636.03
2023-11-09T03:20:12.905Z,99633.25
2023-11-09T03:20:45.491Z,99634.94
2023-11-09T03:21:18.362Z,99635.59
2023-11-09T03:21:50.282Z,99632.63
2023-11-09T03:22:22.200Z,99632.69
2023-11-09T03:22:54.141Z,99632.38
2023-11-09T03:23:28.066Z,99633.81
2023-11-09T03:23:59.974Z,99635.44
2023-11-09T03:24:34.332Z,99632.84
2023-11-09T03:25:07.488Z,99632.53
2023-11-09T03:25:39.804Z,99629.84
2023-11-09T03:26:11.743Z,99631.38
2023-11-09T03:26:44.048Z,99635.88
2023-11-09T03:27:15.925Z,99638.44
2023-11-09T03:27:48.292Z,99639.19
2023-11-09T03:28:20.407Z,99634.94
2023-11-09T03:28:52.355Z,99637.53
2023-11-09T03:29:25.021Z,99636.44
2023-11-09T03:29:57.002Z,99635.41
2023-11-09T03:30:31.717Z,99633.72
2023-11-09T03:31:05.654Z,99633.72
2023-11-09T03:31:37.615Z,99630.94
2023-11-09T03:32:11.164Z,99634.34
2023-11-09T03:32:43.193Z,99627.69
2023-11-09T03:33:15.529Z,99633.69
2023-11-09T03:33:47.611Z,99633.16
2023-11-09T03:34:19.541Z,99628.59
2023-11-09T03:34:51.479Z,99630.00
2023-11-09T03:35:23.391Z,99626.41
2023-11-09T03:35:55.670Z,99634.16
2023-11-09T03:36:27.609Z,99629.66
2023-11-09T03:36:59.555Z,99627.34
2023-11-09T03:37:32.186Z,99630.50
2023-11-09T03:38:04.849Z,99634.41
2023-11-09T03:38:36.734Z,99624.44
2023-11-09T03:39:09.045Z,99630.41
2023-11-09T03:39:40.914Z,99623.22
2023-11-09T03:40:13.810Z,99624.31
2023-11-09T03:40:45.699Z,99625.13
2023-11-09T03:41:17.547Z,99624.19
2023-11-09T03:41:49.472Z,99623.34
2023-11-09T03:42:21.575Z,99624.91
2023-11-09T03:42:53.959Z,99618.66
2023-11-09T03:43:25.855Z,99616.81
2023-11-09T03:43:58.310Z,99622.19
2023-11-09T03:44:40.717Z,99625.25
2023-11-09T03:45:12.768Z,99621.06
2023-11-09T03:45:44.648Z,99626.34
2023-11-09T03:46:16.584Z,99631.78
2023-11-09T03:46:52.372Z,99626.38
2023-11-09T03:47:25.377Z,99626.19
2023-11-09T03:47:57.401Z,99617.38
2023-11-09T03:48:29.432Z,99623.09
2023-11-09T03:49:01.567Z,99625.38
2023-11-09T03:49:34.006Z,99627.47
2023-11-09T03:50:06.091Z,99624.56
2023-11-09T03:50:38.044Z,99624.00
2023-11-09T03:51:10.105Z,99626.25
2023-11-09T03:51:41.984Z,99630.88
2023-11-09T03:52:14.263Z,99629.25
2023-11-09T03:52:47.075Z,99624.88
2023-11-09T03:53:19.721Z,99622.44
2023-11-09T03:53:51.864Z,99619.16
2023-11-09T03:54:23.754Z,99619.41
2023-11-09T03:54:58.475Z,99625.63
2023-11-09T03:55:32.101Z,99624.19
2023-11-09T03:56:04.456Z,99628.56
2023-11-09T03:56:36.966Z,99633.00
2023-11-09T03:57:09.287Z,99622.03
2023-11-09T03:57:41.224Z,99614.34
2023-11-09T03:58:13.256Z,99624.25
2023-11-09T03:58:46.346Z,99627.66
2023-11-09T03:59:18.224Z,99629.13
2023-11-09T03:59:50.442Z,99623.44
2023-11-09T04:00:22.666Z,99617.66
2023-11-09T04:00:55.295Z,99621.97
2023-11-09T04:01:27.340Z,99631.63
2023-11-09T04:01:59.259Z,99621.78
2023-11-09T04:02:32.629Z,99619.75
2023-11-09T04:03:04.573Z,99619.59
2023-11-09T04:03:36.550Z,99617.69
2023-11-09T04:04:08.563Z,99627.38
2023-11-09T04:04:40.542Z,99625.34
2023-11-09T04:05:14.617Z,99633.97
2023-11-09T04:05:46.632Z,99629.28
2023-11-09T04:06:19.200Z,99618.53
2023-11-09T04:06:51.208Z,99617.44
2023-11-09T04:07:23.435Z,99618.19
2023-11-09T04:07:55.416Z,99616.19
2023-11-09T04:08:27.409Z,99607.22
2023-11-09T04:08:59.550Z,99610.63
2023-11-09T04:09:31.451Z,99613.97
2023-11-09T04:10:03.941Z,99611.31
2023-11-09T04:10:35.937Z,99612.97
2023-11-09T04:11:07.885Z,99619.16
2023-11-09T04:11:40.249Z,99608.69
2023-11-09T04:12:13.308Z,99607.66
2023-11-09T04:12:45.548Z,99608.41
2023-11-09T04:13:17.417Z,99612.75
2023-11-09T04:13:49.419Z,99614.56
2023-11-09T04:14:21.263Z,99610.94
2023-11-09T04:14:53.725Z,99618.03
2023-11-09T04:15:25.670Z,99610.22
2023-11-09T04:16:00.504Z,99614.72
2023-11-09T04:16:33.097Z,99622.50
2023-11-09T04:17:05.114Z,99616.38
2023-11-09T04:17:37.158Z,99615.47
2023-11-09T04:18:09.120Z,99613.63
2023-11-09T04:18:41.118Z,99611.06
2023-11-09T04:19:13.093Z,99614.59
2023-11-09T04:19:45.075Z,99613.78
2023-11-09T04:20:18.092Z,99605.94
2023-11-09T04:20:49.964Z,99611.31
2023-11-09T04:21:21.904Z,99607.81
2023-11-09T04:21:54.372Z,99607.75
2023-11-09T04:22:26.496Z,99605.81
2023-11-09T04:22:59.907Z,99608.22
2023-11-09T04:23:32.939Z,99610.81
2023-11-09T04:24:06.521Z,99595.13
2023-11-09T04:24:38.476Z,99602.25
2023-11-09T04:25:11.592Z,99598.72
2023-11-09T04:25:43.552Z,99608.94
2023-11-09T04:26:15.510Z,99599.00
2023-11-09T04:26:47.415Z,99599.69
2023-11-09T04:27:19.539Z,99595.19
2023-11-09T04:27:52.259Z,99595.56
2023-11-09T04:28:24.263Z,99591.31
2023-11-09T04:28:58.613Z,99603.41
2023-11-09T04:29:31.691Z,99601.63
2023-11-09T04:30:06.783Z,99603.28
2023-11-09T04:30:38.694Z,99594.97
2023-11-09T04:31:10.873Z,99589.06
2023-11-09T04:31:44.126Z,99599.41
2023-11-09T04:32:19.422Z,99588.84
2023-11-09T04:32:57.456Z,99592.56
2023-11-09T04:33:29.388Z,99590.09
2023-11-09T04:34:09.482Z,99594.56
2023-11-09T04:34:45.980Z,99589.06
2023-11-09T04:35:19.171Z,99585.41
2023-11-09T04:35:53.511Z,99595.97
2023-11-09T04:36:25.738Z,99589.53
2023-11-09T04:36:57.657Z,99591.47
2023-11-09T04:37:30.016Z,99586.31
2023-11-09T04:38:03.818Z,99585.53
2023-11-09T04:38:38.793Z,99591.63
2023-11-09T04:39:12.009Z,99591.72
2023-11-09T04:39:47.861Z,99590.97
2023-11-09T04:40:23.495Z,99589.34
2023-11-09T04:41:05.053Z,99585.84
2023-11-09T04:41:36.969Z,99582.44
2023-11-09T04:42:10.729Z,99593.91
2023-11-09T04:42:48.435Z,99595.66
2023-11-09T04:43:20.474Z,99592.91
2023-11-09T04:43:56.185Z,99597.19
2023-11-09T04:44:29.913Z,99590.31
2023-11-09T04:45:02.183Z,99604.47
2023-11-09T04:45:34.872Z,99596.72
2023-11-09T04:46:11.792Z,99594.19
2023-11-09T04:46:44.098Z,99606.47
2023-11-09T04:47:21.958Z,99610.09
2023-11-09T04:47:58.534Z,99600.44
2023-11-09T04:48:32.801Z,99600.47
2023-11-09T04:49:08.088Z,99599.97
2023-11-09T04:49:46.702Z,99599.25
2023-11-09T04:50:29.154Z,99602.75
2023-11-09T04:51:05.178Z,99605.50
2023-11-09T04:51:37.980Z,99601.84
2023-11-09T04:52:11.114Z,99600.06
2023-11-09T04:52:53.255Z,99601.94
2023-11-09T04:53:31.682Z,99601.88
2023-11-09T04:54:18.494Z,99597.69
2023-11-09T04:54:58.627Z,99604.59
2023-11-09T04:55:44.518Z,99600.09
2023-11-09T04:56:31.406Z,99608.84
2023-11-09T04:57:26.125Z,99606.13
2023-11-09T04:58:16.729Z,99600.88
2023-11-09T04:59:03.069Z,99601.34
2023-11-09T04:59:35.289Z,99592.47
2023-11-09T05:00:26.379Z,99606.47
2023-11-09T05:01:16.870Z,99599.47
2023-11-09T05:02:07.219Z,99604.63
2023-11-09T05:03:08.340Z,99603.72
2023-11-09T05:03:58.922Z,99612.38
2023-11-09T05:04:49.518Z,99606.25
2023-11-09T05:05:40.176Z,99608.72
2023-11-09T05:06:30.772Z,99598.25
2023-11-09T05:07:03.019Z,99604.09
2023-11-09T05:07:36.581Z,99599.63
2023-11-09T05:08:08.650Z,99605.66
2023-11-09T05:08:40.882Z,99602.66
2023-11-09T05:09:16.016Z,99600.09
2023-11-09T05:09:48.069Z,99593.91
2023-11-09T05:10:20.032Z,99601.06
2023-11-09T05:10:52.266Z,99594.81
2023-11-09T05:11:24.213Z,99597.22
2023-11-09T05:11:56.305Z,99603.34
2023-11-09T05:12:28.304Z,99602.59
2023-11-09T05:13:00.298Z,99604.47
2023-11-09T05:13:32.337Z,99607.03
2023-11-09T05:14:04.349Z,99605.25
2023-11-09T05:14:36.230Z,99603.41
2023-11-09T05:15:08.632Z,99604.34
2023-11-09T05:15:40.610Z,99609.69
2023-11-09T05:16:12.535Z,99606.25
2023-11-09T05:16:45.131Z,99602.66
2023-11-09T05:17:17.400Z,99606.13
2023-11-09T05:17:49.383Z,99604.28
2023-11-09T05:18:21.621Z,99593.78
2023-11-09T05:18:59.837Z,99607.91
2023-11-09T05:19:31.908Z,99597.31
2023-11-09T05:20:06.551Z,99594.75
2023-11-09T05:20:38.449Z,99601.63
2023-11-09T05:21:10.485Z,99604.19
2023-11-09T05:21:42.520Z,99595.31
2023-11-09T05:22:14.623Z,99597.84
2023-11-09T05:22:46.861Z,99603.06
2023-11-09T05:23:19.778Z,99595.16
2023-11-09T05:23:52.102Z,99598.63
2023-11-09T05:24:24.282Z,99594.22
2023-11-09T05:24:56.196Z,99592.56
2023-11-09T05:25:30.099Z,99591.66
2023-11-09T05:26:02.746Z,99593.44
2023-11-09T05:26:37.803Z,99590.78
2023-11-09T05:27:11.766Z,99588.25
2023-11-09T05:27:43.716Z,99589.16
2023-11-09T05:28:15.661Z,99590.94
2023-11-09T05:28:47.561Z,99586.56
2023-11-09T05:29:20.401Z,99592.72
2023-11-09T05:29:53.848Z,99587.53
2023-11-09T05:30:26.487Z,99591.81
2023-11-09T05:31:01.368Z,99585.63
2023-11-09T05:31:37.355Z,99588.25
2023-11-09T05:32:09.506Z,99583.84
2023-11-09T05:32:42.091Z,99587.22
2023-11-09T05:33:14.122Z,99596.06
2023-11-09T05:33:46.091Z,99589.00
2023-11-09T05:34:18.066Z,99591.56
2023-11-09T05:34:51.259Z,99592.44
2023-11-09T05:35:23.113Z,99592.44
2023-11-09T05:35:56.077Z,99588.94
2023-11-09T05:36:27.946Z,99591.53
2023-11-09T05:36:59.855Z,99590.63
2023-11-09T05:37:31.816Z,99591.53
2023-11-09T05:38:04.993Z,99592.28
2023-11-09T05:38:37.863Z,99590.63
2023-11-09T05:39:11.812Z,99592.28
2023-11-09T05:39:44.417Z,99596.69
2023-11-09T05:40:16.675Z,99594.13
2023-11-09T05:40:48.750Z,99593.19
2023-11-09T05:41:21.174Z,99594.00
2023-11-09T05:41:53.534Z,99597.50
2023-11-09T05:42:26.479Z,99590.41
2023-11-09T05:42:58.498Z,99592.22
2023-11-09T05:43:30.624Z,99591.38
2023-11-09T05:44:02.760Z,99597.38
2023-11-09T05:44:34.760Z,99592.16
2023-11-09T05:45:07.563Z,99600.94
2023-11-09T05:45:39.933Z,99593.81
2023-11-09T05:46:12.140Z,99599.91
2023-11-09T05:46:44.271Z,99597.25
2023-11-09T05:47:16.244Z,99591.97
2023-11-09T05:47:48.121Z,99589.38
2023-11-09T05:48:20.132Z,99592.03
2023-11-09T05:48:52.200Z,99591.25
2023-11-09T05:49:25.123Z,99587.69
2023-11-09T05:50:00.984Z,99587.50
2023-11-09T05:50:32.946Z,99595.41
2023-11-09T05:51:05.818Z,99594.59
2023-11-09T05:51:41.324Z,99592.97
2023-11-09T05:52:13.317Z,99594.66
2023-11-09T05:52:45.293Z,99597.31
2023-11-09T05:53:17.201Z,99588.47
2023-11-09T05:53:54.977Z,99591.94
2023-11-09T05:54:26.948Z,99592.72
2023-11-09T05:54:58.829Z,99597.03
2023-11-09T05:55:32.004Z,99590.94
2023-11-09T05:56:04.469Z,99592.72
2023-11-09T05:56:36.436Z,99597.88
2023-11-09T05:57:08.329Z,99593.44
2023-11-09T05:57:40.382Z,99595.13
2023-11-09T05:58:12.911Z,99599.50
2023-11-09T05:58:46.146Z,99599.50
2023-11-09T05:59:18.772Z,99594.16
2023-11-09T05:59:50.764Z,99598.50
2023-11-09T06:00:36.458Z,99595.81
2023-11-09T06:01:08.415Z,99598.41
2023-11-09T06:01:40.666Z,99594.78
2023-11-09T06:02:13.025Z,99594.75
2023-11-09T06:02:45.050Z,99591.16
2023-11-09T06:03:17.200Z,99596.31
2023-11-09T06:03:50.199Z,99600.63
2023-11-09T06:04:22.320Z,99596.09
2023-11-09T06:04:54.470Z,99591.59
2023-11-09T06:05:26.566Z,99600.22
2023-11-09T06:05:58.617Z,99605.38
2023-11-09T06:06:31.883Z,99597.28
2023-11-09T06:07:03.818Z,99606.00
2023-11-09T06:07:36.606Z,99610.19
2023-11-09T06:08:12.281Z,99610.84
2023-11-09T06:08:45.068Z,99603.69
2023-11-09T06:09:16.985Z,99600.84
2023-11-09T06:09:49.638Z,99598.81
2023-11-09T06:10:22.225Z,99598.59
2023-11-09T06:10:54.534Z,99605.56
2023-11-09T06:11:27.274Z,99603.66
2023-11-09T06:11:59.180Z,99606.84
2023-11-09T06:12:31.102Z,99604.09
2023-11-09T06:13:03.123Z,99605.72
2023-11-09T06:13:35.203Z,99601.13
2023-11-09T06:14:08.529Z,99608.84
2023-11-09T06:14:40.468Z,99607.88
2023-11-09T06:15:14.931Z,99606.09
2023-11-09T06:15:46.973Z,99603.31
2023-11-09T06:16:19.685Z,99600.72
2023-11-09T06:16:52.226Z,99606.59
2023-11-09T06:17:24.217Z,99602.84
2023-11-09T06:17:57.048Z,99608.00
2023-11-09T06:18:28.994Z,99602.72
2023-11-09T06:19:03.573Z,99596.84
2023-11-09T06:19:35.785Z,99597.38
2023-11-09T06:20:12.028Z,99598.25
2023-11-09T06:20:45.446Z,99600.41
2023-11-09T06:21:17.362Z,99599.47
2023-11-09T06:21:52.434Z,99595.72
2023-11-09T06:22:24.409Z,99608.66
2023-11-09T06:22:57.511Z,99604.03
2023-11-09T06:23:29.848Z,99600.53
2023-11-09T06:24:01.801Z,99602.13
2023-11-09T06:24:33.718Z,99608.19
2023-11-09T06:25:05.868Z,99601.97
2023-11-09T06:25:37.855Z,99605.44
2023-11-09T06:26:09.741Z,99604.22
2023-11-09T06:26:41.619Z,99600.72
2023-11-09T06:27:13.546Z,99605.88
2023-11-09T06:27:45.487Z,99600.53
2023-11-09T06:28:18.095Z,99604.66
2023-11-09T06:28:52.704Z,99606.25
2023-11-09T06:29:24.678Z,99607.41